Time;durP1;ratioP1;P1;durP2;ratioP2;P2;SDS_P1;SDS_P2;PMS_P1;PMS_P2;Temp;Humidity;BMP_temperature;BMP_pressure;BME280_temperature;BME280_humidity;BME280_pressure;Samples;Min_cycle;Max_cycle;Signal;HPM_P1;HPM_P2
2021/07/26 00:01:32;;;;;;;6.30;3.72;;;;;;;11.44;89.29;90521.44;4973517;28;20027;-87
2021/07/26 00:04:11;;;;;;;4.60;3.30;;;;;;;11.49;89.75;90529.00;4972859;28;20122;-86
2021/07/26 00:06:49;;;;;;;6.20;3.72;;;;;;;11.51;89.75;90539.09;4972408;28;20035;-87
2021/07/26 00:09:33;;;;;;;5.38;3.25;;;;;;;11.53;89.94;90529.09;4988965;28;20015;-86
2021/07/26 00:12:05;;;;;;;5.43;3.22;;;;;;;11.52;90.28;90524.97;4987335;28;20407;-87
2021/07/26 00:14:50;;;;;;;20.20;5.35;;;;;;;11.58;89.46;90525.44;4972537;28;20031;-87
2021/07/26 00:17:20;;;;;;;3.85;3.00;;;;;;;11.51;89.63;90522.69;4973656;28;20030;-88
2021/07/26 00:19:58;;;;;;;5.00;3.10;;;;;;;11.52;89.80;90529.41;4972959;28;20055;-87
2021/07/26 00:22:36;;;;;;;5.05;3.70;;;;;;;11.51;89.70;90527.91;4973769;28;20057;-87
2021/07/26 00:25:15;;;;;;;5.53;3.10;;;;;;;11.58;90.21;90531.41;4972158;28;20018;-87
2021/07/26 00:27:57;;;;;;;4.63;3.00;;;;;;;11.59;89.95;90526.94;4972126;28;20031;-87
2021/07/26 00:30:38;;;;;;;4.95;3.20;;;;;;;11.58;90.26;90523.59;4972694;28;20493;-87
2021/07/26 00:34:06;;;;;;;6.57;3.85;;;;;;;11.66;89.88;90516.66;4972025;28;20046;-87
2021/07/26 00:36:41;;;;;;;3.58;2.83;;;;;;;11.68;89.61;90530.88;4973212;28;20030;-87
2021/07/26 00:39:19;;;;;;;4.95;3.20;;;;;;;11.62;89.85;90521.78;4956085;28;20033;-87
2021/07/26 00:41:52;;;;;;;5.28;3.28;;;;;;;11.65;90.19;90520.34;4957986;28;20050;-87
2021/07/26 00:44:27;;;;;;;6.40;3.38;;;;;;;11.67;90.14;90520.78;4997177;28;20011;-90
2021/07/26 00:47:08;;;;;;;8.25;3.40;;;;;;;11.69;89.89;90515.97;4997617;28;20014;-87
2021/07/26 00:49:50;;;;;;;6.63;3.20;;;;;;;11.71;90.04;90519.00;4959120;28;20027;-86
2021/07/26 00:52:23;;;;;;;4.88;3.00;;;;;;;11.69;89.94;90513.34;4986563;28;20027;-88
2021/07/26 00:54:59;;;;;;;7.30;3.08;;;;;;;11.72;90.00;90510.81;4971617;28;20026;-87
2021/07/26 00:57:37;;;;;;;5.07;2.97;;;;;;;11.78;89.74;90526.97;4971622;28;20399;-87
2021/07/26 01:00:18;;;;;;;4.45;2.97;;;;;;;11.96;89.22;90525.47;4971180;28;20019;-87
2021/07/26 01:02:58;;;;;;;5.38;3.00;;;;;;;11.88;89.53;90523.84;4971658;28;20031;-87
2021/07/26 01:05:34;;;;;;;5.10;3.10;;;;;;;11.82;89.89;90524.41;4987407;28;20415;-88
2021/07/26 01:08:12;;;;;;;8.68;3.30;;;;;;;11.83;89.89;90526.69;4971609;28;20023;-87
2021/07/26 01:10:48;;;;;;;4.50;2.97;;;;;;;11.81;90.03;90523.66;4972421;28;20046;-86
2021/07/26 01:13:30;;;;;;;5.70;3.05;;;;;;;11.77;89.89;90522.84;4977049;28;20443;-87
2021/07/26 01:16:05;;;;;;;7.57;3.33;;;;;;;11.73;89.88;90522.00;4977311;28;20035;-87
2021/07/26 01:18:40;;;;;;;6.85;3.03;;;;;;;11.78;90.13;90513.91;4993560;28;20031;-87
2021/07/26 01:21:17;;;;;;;5.78;3.45;;;;;;;11.80;90.48;90522.16;4977686;28;20029;-87
2021/07/26 01:23:50;;;;;;;6.07;2.90;;;;;;;11.83;90.11;90526.69;4978105;28;20023;-87
2021/07/26 01:26:28;;;;;;;8.48;3.00;;;;;;;11.87;89.16;90522.31;4977885;28;20161;-87
2021/07/26 01:29:11;;;;;;;4.32;2.88;;;;;;;11.79;89.52;90528.47;4978082;28;20036;-87
2021/07/26 01:31:43;;;;;;;6.00;2.92;;;;;;;11.85;89.08;90540.19;4978824;28;20027;-87
2021/07/26 01:34:16;;;;;;;4.60;3.28;;;;;;;11.86;88.95;90543.53;4962706;28;20503;-86
2021/07/26 01:36:56;;;;;;;7.55;3.05;;;;;;;11.79;89.08;90541.53;4977791;28;20439;-87
2021/07/26 01:39:38;;;;;;;6.80;2.80;;;;;;;11.80;89.89;90544.88;4961267;28;20023;-87
2021/07/26 01:42:18;;;;;;;4.47;2.90;;;;;;;11.78;89.96;90547.09;4978877;28;20033;-87
2021/07/26 01:44:57;;;;;;;3.80;3.03;;;;;;;11.73;90.74;90551.50;4978933;28;20019;-87
2021/07/26 01:47:34;;;;;;;5.55;3.03;;;;;;;11.83;90.14;90542.34;4946108;28;20031;-87
2021/07/26 01:50:15;;;;;;;2.90;2.40;;;;;;;11.75;90.17;90538.09;4961844;28;20027;-87
2021/07/26 01:52:54;;;;;;;7.18;3.33;;;;;;;11.71;90.58;90539.88;4962173;28;20117;-87
2021/07/26 01:55:27;;;;;;;5.47;3.17;;;;;;;11.71;90.50;90539.88;4961494;28;20026;-87
2021/07/26 01:58:06;;;;;;;4.28;2.58;;;;;;;11.76;90.03;90531.75;4977553;28;20026;-87
2021/07/26 02:00:41;;;;;;;3.75;2.50;;;;;;;11.73;90.12;90535.06;4961458;28;20027;-87
2021/07/26 02:03:18;;;;;;;4.80;2.83;;;;;;;11.69;89.79;90531.63;4977579;28;20023;-88
2021/07/26 02:05:47;;;;;;;4.05;2.72;;;;;;;11.69;89.68;90532.38;4962349;28;20558;-87
2021/07/26 02:08:26;;;;;;;3.42;2.75;;;;;;;11.65;89.94;90543.84;4977453;28;20034;-87
2021/07/26 02:11:06;;;;;;;5.75;3.05;;;;;;;11.66;90.43;90530.47;4961880;28;20030;-87
2021/07/26 02:13:43;;;;;;;6.05;2.70;;;;;;;11.72;90.27;90533.56;4978578;28;20066;-88
2021/07/26 02:16:18;;;;;;;5.00;2.83;;;;;;;11.66;90.29;90532.31;4977443;28;20035;-85
2021/07/26 02:18:54;;;;;;;5.07;3.00;;;;;;;11.65;90.57;90538.63;4977344;28;20053;-87
2021/07/26 02:21:29;;;;;;;5.18;2.97;;;;;;;11.75;90.26;90534.72;4961629;28;20027;-87
2021/07/26 02:24:07;;;;;;;4.15;2.85;;;;;;;11.78;90.56;90528.81;4974531;28;20390;-87
2021/07/26 02:26:43;;;;;;;3.80;2.60;;;;;;;11.78;90.97;90540.00;4959458;28;20026;-87
2021/07/26 02:29:19;;;;;;;5.05;2.80;;;;;;;11.84;90.63;90530.84;4974003;28;20022;-86
2021/07/26 02:31:58;;;;;;;3.65;2.92;;;;;;;11.85;90.94;90544.66;4974057;28;20039;-86
2021/07/26 02:34:35;;;;;;;4.43;2.80;;;;;;;11.85;90.53;90547.25;4974590;28;20450;-87
2021/07/26 02:37:17;;;;;;;5.20;2.75;;;;;;;11.83;90.72;90542.34;4974187;28;20399;-86
2021/07/26 02:39:56;;;;;;;3.90;3.05;;;;;;;11.85;90.75;90539.44;4988631;28;20147;-85
2021/07/26 02:42:33;;;;;;;5.88;3.30;;;;;;;12.00;91.10;90551.66;4975186;28;20038;-87
2021/07/26 02:45:08;;;;;;;5.45;3.15;;;;;;;12.08;91.22;90549.91;4973909;28;20117;-87
2021/07/26 02:47:48;;;;;;;7.03;3.17;;;;;;;12.09;91.59;90544.38;4990141;28;20097;-87
2021/07/26 02:50:31;;;;;;;5.57;3.40;;;;;;;12.15;91.51;90552.66;4974206;28;20105;-87
2021/07/26 02:53:11;;;;;;;7.43;4.00;;;;;;;12.20;91.43;90555.00;4972962;28;20054;-87
2021/07/26 02:55:48;;;;;;;4.72;3.47;;;;;;;12.23;91.55;90559.53;4973553;28;20022;-87
2021/07/26 02:58:24;;;;;;;4.20;3.20;;;;;;;12.28;90.93;90556.63;4989129;28;20391;-89
2021/07/26 03:00:57;;;;;;;6.18;3.15;;;;;;;12.31;90.71;90557.81;4972971;28;20077;-87
2021/07/26 03:03:33;;;;;;;5.38;3.25;;;;;;;12.31;90.81;90557.81;4974685;28;20073;-87
2021/07/26 03:06:19;;;;;;;6.25;3.70;;;;;;;12.28;91.06;90556.63;4973443;28;20081;-87
2021/07/26 03:08:58;;;;;;;5.28;3.75;;;;;;;12.36;90.19;90555.66;4988888;28;20370;-87
2021/07/26 03:11:34;;;;;;;5.25;3.22;;;;;;;12.34;90.65;90550.03;4988109;28;20562;-87
2021/07/26 03:14:16;;;;;;;4.68;3.10;;;;;;;12.17;90.00;90547.84;4973640;28;20027;-87
2021/07/26 03:16:52;;;;;;;5.30;3.03;;;;;;;12.09;90.24;90548.84;4957655;28;20023;-86
2021/07/26 03:19:30;;;;;;;8.38;3.45;;;;;;;12.07;90.36;90548.41;4973285;28;20026;-87
2021/07/26 03:22:49;;;;;;;6.63;3.67;;;;;;;12.07;91.05;90551.78;4973248;28;20031;-87
2021/07/26 03:25:26;;;;;;;5.70;3.85;;;;;;;12.14;90.48;90544.06;4979379;28;20035;-86
2021/07/26 03:28:01;;;;;;;11.48;4.22;;;;;;;12.28;90.76;90546.19;4957425;28;20054;-87
2021/07/26 03:30:37;;;;;;;6.43;3.78;;;;;;;12.15;90.86;90547.44;5029242;23;20042;-90
2021/07/26 03:33:11;;;;;;;9.15;4.40;;;;;;;12.07;91.07;90546.56;5000228;28;20501;-89
2021/07/26 03:35:49;;;;;;;7.72;3.95;;;;;;;12.00;90.98;90540.44;5015530;28;20397;-90
2021/07/26 03:38:33;;;;;;;5.85;3.53;;;;;;;12.07;91.17;90551.03;5000068;28;20061;-90
2021/07/26 03:41:09;;;;;;;9.20;4.17;;;;;;;12.07;91.16;90546.56;5000434;28;20021;-89
2021/07/26 03:43:43;;;;;;;7.95;3.85;;;;;;;12.03;90.99;90539.75;4999437;28;20431;-89
2021/07/26 03:46:20;;;;;;;5.43;3.20;;;;;;;12.04;90.28;90536.78;4999096;28;20064;-88
2021/07/26 03:48:54;;;;;;;5.13;3.78;;;;;;;11.95;90.83;90533.66;4983532;28;20032;-89
2021/07/26 03:51:36;;;;;;;8.05;4.25;;;;;;;12.04;90.52;90530.81;4998542;28;20449;-89
2021/07/26 03:54:13;;;;;;;5.75;3.63;;;;;;;11.84;91.57;90522.25;4999339;28;20025;-89
2021/07/26 03:56:52;;;;;;;6.20;3.47;;;;;;;11.83;90.65;90531.91;4998721;28;20489;-90
2021/07/26 03:59:32;;;;;;;5.28;3.83;;;;;;;11.89;91.05;90517.50;4998019;28;20025;-89
2021/07/26 04:02:04;;;;;;;6.25;4.53;;;;;;;12.29;90.76;90520.81;5016120;28;20025;-89
2021/07/26 04:04:42;;;;;;;6.53;4.55;;;;;;;12.13;91.70;90513.84;4999241;28;20026;-89
2021/07/26 04:07:22;;;;;;;5.43;4.00;;;;;;;11.94;90.71;90522.47;4999073;28;20032;-89
2021/07/26 04:10:02;;;;;;;9.25;4.57;;;;;;;11.92;91.10;90508.97;5000415;28;20099;-89
2021/07/26 04:12:33;;;;;;;7.80;4.55;;;;;;;11.98;91.18;90513.91;4999151;28;20131;-90
2021/07/26 04:15:17;;;;;;;7.28;4.80;;;;;;;11.98;91.50;90512.06;4998920;28;20025;-89
2021/07/26 04:17:53;;;;;;;6.30;4.67;;;;;;;11.94;91.02;90513.84;5002105;28;20033;-89
2021/07/26 04:20:28;;;;;;;4.95;3.58;;;;;;;11.90;89.74;90505.19;4999510;28;20270;-89
2021/07/26 04:22:57;;;;;;;6.90;4.30;;;;;;;11.85;89.35;90506.25;4999165;28;20061;-89
2021/07/26 04:25:33;;;;;;;5.78;3.92;;;;;;;11.92;89.72;90498.53;4982192;28;20025;-90
2021/07/26 04:28:08;;;;;;;5.43;3.30;;;;;;;11.92;88.88;90511.59;5015063;28;20547;-88
2021/07/26 04:30:46;;;;;;;5.20;3.42;;;;;;;11.75;89.48;90509.38;4982043;28;20029;-89
2021/07/26 04:33:17;;;;;;;6.53;3.45;;;;;;;11.81;89.46;90509.88;5014027;28;20021;-88
2021/07/26 04:35:49;;;;;;;5.18;3.80;;;;;;;11.63;90.07;90507.66;5013941;28;20021;-89
2021/07/26 04:38:30;;;;;;;5.65;3.83;;;;;;;11.70;90.44;90512.28;4981716;28;20026;-88
2021/07/26 04:40:57;;;;;;;8.10;3.55;;;;;;;11.66;90.88;90511.41;4998008;28;20067;-89
2021/07/26 04:43:34;;;;;;;5.20;3.58;;;;;;;11.71;90.65;90516.38;4997377;28;20029;-89
2021/07/26 04:46:04;;;;;;;8.48;4.70;;;;;;;12.07;90.00;90511.84;4996690;28;20033;-89
2021/07/26 04:48:46;;;;;;;5.82;4.03;;;;;;;11.89;90.52;90516.75;4996589;28;20029;-89
2021/07/26 04:51:22;;;;;;;6.88;3.70;;;;;;;11.81;90.14;90518.44;4993287;28;20030;-89
2021/07/26 04:53:58;;;;;;;5.47;3.90;;;;;;;11.82;89.86;90517.34;4978401;28;20057;-89
2021/07/26 04:56:24;;;;;;;7.20;4.20;;;;;;;11.80;89.51;90516.94;4993572;28;20025;-89
2021/07/26 04:58:54;;;;;;;6.50;4.30;;;;;;;11.81;90.30;90523.66;5008893;28;20389;-88
2021/07/26 05:01:26;;;;;;;5.97;3.97;;;;;;;11.77;90.17;90512.41;4977393;28;20026;-89
2021/07/26 05:03:55;;;;;;;6.35;4.10;;;;;;;11.86;90.12;90514.81;4972382;28;20036;-89
2021/07/26 05:06:26;;;;;;;8.73;4.50;;;;;;;11.87;90.22;90516.31;4997372;28;20104;-89
2021/07/26 05:08:51;;;;;;;6.78;4.78;;;;;;;12.08;90.93;90521.19;4981331;28;20029;-88
2021/07/26 05:11:27;;;;;;;9.65;4.95;;;;;;;12.35;90.70;90514.19;4994688;28;20036;-89
2021/07/26 05:13:58;;;;;;;7.90;4.63;;;;;;;12.30;90.61;90517.88;4962365;28;20124;-89
2021/07/26 05:16:31;;;;;;;7.75;4.50;;;;;;;12.25;90.02;90520.75;4962266;28;20030;-89
2021/07/26 05:19:07;;;;;;;6.60;4.40;;;;;;;12.25;89.42;90525.97;4978392;28;20454;-89
2021/07/26 05:21:35;;;;;;;5.88;4.20;;;;;;;12.14;89.40;90527.66;4966537;28;20032;-90
2021/07/26 05:24:15;;;;;;;7.60;4.18;;;;;;;12.23;89.44;90527.44;4996928;28;20021;-89
2021/07/26 05:26:49;;;;;;;7.30;3.95;;;;;;;12.39;88.92;90515.00;4963370;28;20449;-88
2021/07/26 05:29:23;;;;;;;6.20;4.60;;;;;;;12.53;89.44;90527.56;4977651;28;20022;-88
2021/07/26 05:32:08;;;;;;;5.38;4.05;;;;;;;12.65;89.68;90527.41;4565831;28;12011327;-89
2021/07/26 05:34:43;;;;;;;7.18;4.65;;;;;;;12.66;89.25;90521.06;4965643;28;20053;-88
2021/07/26 05:37:20;;;;;;;8.18;4.68;;;;;;;12.71;89.54;90514.78;4995093;28;20041;-89
2021/07/26 05:39:59;;;;;;;5.78;4.25;;;;;;;12.99;89.05;90530.91;4993904;28;20046;-89
2021/07/26 05:42:31;;;;;;;5.25;4.10;;;;;;;13.07;89.01;90529.13;4963930;28;20025;-89
2021/07/26 05:45:09;;;;;;;6.90;4.90;;;;;;;13.23;89.30;90529.00;4978256;28;20030;-88
2021/07/26 05:47:55;;;;;;;7.50;4.82;;;;;;;13.37;90.00;90537.09;5011459;28;20022;-88
2021/07/26 05:50:31;;;;;;;5.82;4.10;;;;;;;13.42;89.92;90536.75;4980773;28;20030;-89
2021/07/26 05:53:05;;;;;;;6.50;4.50;;;;;;;13.43;89.59;90533.06;4994683;28;20398;-89
2021/07/26 05:55:46;;;;;;;4.50;3.90;;;;;;;13.49;89.87;90530.88;4962456;28;20022;-87
2021/07/26 05:58:26;;;;;;;6.57;4.55;;;;;;;13.54;89.66;90526.09;4963697;28;20478;-88
2021/07/26 06:01:21;;;;;;;6.97;4.18;;;;;;;13.70;89.19;90536.38;4966362;28;20037;-88
2021/07/26 06:03:55;;;;;;;5.88;4.28;;;;;;;13.74;88.68;90539.78;5000466;28;20030;-87
2021/07/26 06:06:32;;;;;;;5.70;4.00;;;;;;;13.80;88.39;90548.84;4997481;28;20030;-88
2021/07/26 06:09:09;;;;;;;5.18;3.78;;;;;;;13.85;87.70;90550.38;4965737;28;20030;-88
2021/07/26 06:11:46;;;;;;;6.10;4.15;;;;;;;13.81;88.47;90541.75;4981266;28;20046;-87
2021/07/26 06:14:18;;;;;;;6.65;4.50;;;;;;;13.78;87.72;90538.00;4998150;28;20029;-89
2021/07/26 06:16:59;;;;;;;6.63;4.45;;;;;;;13.90;88.31;90538.88;4997277;28;20021;-88
2021/07/26 06:19:32;;;;;;;6.10;4.35;;;;;;;14.06;88.08;90539.41;4981833;28;20045;-88
2021/07/26 06:22:09;;;;;;;7.97;4.75;;;;;;;14.10;87.34;90537.59;4997302;28;20084;-88
2021/07/26 06:24:50;;;;;;;6.93;4.63;;;;;;;14.29;86.81;90540.03;4981003;28;20029;-88
2021/07/26 06:27:28;;;;;;;7.47;4.28;;;;;;;14.33;86.06;90545.31;4965401;28;20026;-88
2021/07/26 06:29:58;;;;;;;10.70;4.50;;;;;;;14.48;87.17;90549.59;4981309;28;20030;-87
2021/07/26 06:32:37;;;;;;;6.38;4.50;;;;;;;14.56;88.18;90555.69;4980480;28;20056;-88
2021/07/26 06:35:21;;;;;;;6.07;4.40;;;;;;;14.42;85.88;90550.28;4982011;28;20464;-87
2021/07/26 06:37:58;;;;;;;6.70;4.45;;;;;;;14.50;85.29;90546.66;4980665;28;20037;-88
2021/07/26 06:40:41;;;;;;;5.82;4.00;;;;;;;14.64;86.15;90552.03;4981291;28;20114;-88
2021/07/26 06:43:16;;;;;;;6.40;3.97;;;;;;;14.75;86.10;90555.50;4996653;28;20036;-87
2021/07/26 06:45:53;;;;;;;5.55;4.20;;;;;;;14.75;84.89;90552.88;4997614;28;20504;-88
2021/07/26 06:48:27;;;;;;;6.70;4.03;;;;;;;14.82;86.37;90563.41;4997466;28;20041;-88
2021/07/26 06:50:53;;;;;;;8.48;3.80;;;;;;;14.95;86.02;90569.16;4979892;28;20057;-88
2021/07/26 06:53:28;;;;;;;5.47;4.13;;;;;;;15.21;84.30;90559.59;4980271;28;20045;-87
2021/07/26 06:55:58;;;;;;;;;;;;;;;15.34;81.78;90565.31;4982715;28;20030;-88
2021/07/26 06:58:41;;;;;;;4.97;3.50;;;;;;;15.50;82.22;90563.16;4999204;28;19964;-89
2021/07/26 07:01:18;;;;;;;4.95;3.42;;;;;;;15.58;81.88;90556.81;4994948;28;20042;-88
2021/07/26 07:03:55;;;;;;;4.85;3.65;;;;;;;15.85;83.36;90562.63;4980577;28;20029;-88
2021/07/26 07:06:32;;;;;;;4.40;3.35;;;;;;;15.86;79.85;90561.50;4984873;28;20026;-89
2021/07/26 07:09:05;;;;;;;5.63;3.65;;;;;;;15.96;81.13;90565.31;4998243;28;20030;-88
2021/07/26 07:11:39;;;;;;;4.68;3.28;;;;;;;15.95;78.56;90561.94;4995604;28;20050;-88
2021/07/26 07:14:15;;;;;;;4.33;3.07;;;;;;;15.95;79.06;90558.56;4980493;28;20490;-88
2021/07/26 07:16:52;;;;;;;5.10;3.15;;;;;;;16.05;77.01;90557.88;4965209;28;20060;-88
2021/07/26 07:19:26;;;;;;;5.53;3.25;;;;;;;16.06;77.90;90561.97;4980711;28;20029;-88
2021/07/26 07:21:58;;;;;;;5.78;3.47;;;;;;;15.96;78.76;90558.19;4980752;28;20029;-88
2021/07/26 07:24:39;;;;;;;5.68;3.47;;;;;;;16.10;77.77;90560.13;4980908;28;20025;-88
2021/07/26 07:27:16;;;;;;;4.30;3.42;;;;;;;16.22;77.29;90559.81;4997911;28;20026;-87
2021/07/26 07:29:47;;;;;;;5.93;3.28;;;;;;;16.27;77.00;90560.56;5013304;28;20073;-87
2021/07/26 07:32:16;;;;;;;5.78;3.67;;;;;;;16.40;78.00;90567.75;4996563;28;20112;-88
2021/07/26 07:34:42;;;;;;;4.78;3.30;;;;;;;16.50;75.98;90571.50;4980605;28;20025;-86
2021/07/26 07:37:25;;;;;;;7.38;3.45;;;;;;;16.56;75.15;90569.28;4995824;28;20120;-88
2021/07/26 07:40:01;;;;;;;5.57;3.28;;;;;;;16.54;74.54;90569.66;4997048;28;20486;-88
2021/07/26 07:42:37;;;;;;;6.00;3.50;;;;;;;16.75;75.59;90581.38;4996917;28;20026;-88
2021/07/26 07:45:08;;;;;;;5.20;3.45;;;;;;;16.82;73.59;90576.13;5013124;28;20093;-88
2021/07/26 07:47:41;;;;;;;5.30;3.60;;;;;;;16.82;72.97;90576.13;4979615;28;20065;-88
2021/07/26 07:50:16;;;;;;;8.80;4.10;;;;;;;17.00;74.34;90579.53;4995268;28;20022;-89
2021/07/26 07:52:53;;;;;;;5.93;3.30;;;;;;;17.25;73.52;90576.19;5012893;28;20025;-89
2021/07/26 07:55:26;;;;;;;5.88;3.47;;;;;;;17.38;72.33;90579.91;4980273;28;20026;-88
2021/07/26 07:58:07;;;;;;;5.93;3.47;;;;;;;17.50;71.51;90582.19;4981115;28;20076;-88
2021/07/26 08:00:38;;;;;;;4.60;3.40;;;;;;;17.84;70.36;90584.41;5000089;28;20026;-86
2021/07/26 08:03:13;;;;;;;5.10;3.50;;;;;;;17.97;70.74;90582.88;4964449;28;20034;-87
2021/07/26 08:05:49;;;;;;;4.40;3.20;;;;;;;18.04;70.69;90572.31;4995347;28;20512;-85
2021/07/26 08:08:20;;;;;;;3.67;2.80;;;;;;;18.25;68.91;90583.91;4982167;28;20029;-86
2021/07/26 08:10:56;;;;;;;4.78;2.80;;;;;;;18.37;66.18;90589.53;4996796;28;20152;-87
2021/07/26 08:13:28;;;;;;;3.78;2.58;;;;;;;18.33;67.04;90582.75;4996653;28;20104;-86
2021/07/26 08:15:58;;;;;;;5.05;3.20;;;;;;;18.33;68.46;90578.22;4982301;28;20072;-86
2021/07/26 08:18:30;;;;;;;8.20;3.08;;;;;;;18.43;68.05;90587.22;4997918;28;20029;-86
2021/07/26 08:21:03;;;;;;;5.38;3.00;;;;;;;18.61;66.05;90585.25;5002199;28;20390;-87
2021/07/26 08:23:35;;;;;;;4.55;2.97;;;;;;;18.60;65.48;90586.41;5000307;28;20030;-86
2021/07/26 08:26:03;;;;;;;3.92;3.05;;;;;;;18.73;66.79;90584.13;4988554;28;20482;-86
2021/07/26 08:28:35;;;;;;;5.97;3.40;;;;;;;18.76;66.37;90582.56;4997780;28;20037;-85
2021/07/26 08:31:11;;;;;;;5.45;3.03;;;;;;;18.69;65.54;90585.22;5015903;28;20076;-87
2021/07/26 08:33:49;;;;;;;4.30;3.05;;;;;;;18.80;64.26;90578.06;5012650;28;20398;-87
2021/07/26 08:36:26;;;;;;;4.05;2.97;;;;;;;18.84;67.04;90589.34;5009942;28;20513;-87
2021/07/26 08:39:03;;;;;;;6.82;3.00;;;;;;;18.94;66.20;90593.81;5012031;28;20060;-87
2021/07/26 08:41:42;;;;;;;4.50;2.97;;;;;;;19.30;67.23;90588.28;5011492;28;20022;-87
2021/07/26 08:44:17;;;;;;;4.30;2.90;;;;;;;19.49;68.57;90590.38;5010835;28;20116;-87
2021/07/26 08:46:57;;;;;;;5.63;4.32;;;;;;;19.64;68.50;90585.00;5010163;28;20058;-86
2021/07/26 08:49:34;;;;;;;7.20;4.32;;;;;;;19.77;65.60;90580.72;5023890;28;20022;-88
2021/07/26 08:52:10;;;;;;;3.45;2.72;;;;;;;19.99;65.87;90581.28;5005940;28;20085;-88
2021/07/26 08:54:43;;;;;;;5.05;3.28;;;;;;;20.03;65.60;90585.38;4993011;28;20034;-87
2021/07/26 08:57:17;;;;;;;4.55;3.15;;;;;;;20.01;64.38;90584.28;4995367;28;20482;-86
2021/07/26 08:59:56;;;;;;;5.47;3.15;;;;;;;19.95;61.25;90589.25;4994623;28;20069;-86
2021/07/26 09:02:25;;;;;;;4.50;3.15;;;;;;;19.84;63.56;90588.59;4979939;28;20061;-87
2021/07/26 09:04:56;;;;;;;4.80;3.20;;;;;;;20.06;61.50;90589.13;4979110;28;20064;-86
2021/07/26 09:07:34;;;;;;;7.55;3.10;;;;;;;19.93;62.49;90591.53;4979002;28;20030;-86
2021/07/26 09:10:12;;;;;;;4.45;2.95;;;;;;;20.22;62.33;90594.63;5011540;28;20022;-87
2021/07/26 09:12:48;;;;;;;4.57;3.20;;;;;;;20.05;62.18;90585.00;4963851;28;20034;-86
2021/07/26 09:15:17;;;;;;;4.18;3.35;;;;;;;20.05;61.63;90598.97;5012356;28;20504;-86
2021/07/26 09:17:53;;;;;;;3.80;2.70;;;;;;;20.00;60.08;90593.34;5052516;28;20062;-87
2021/07/26 09:20:28;;;;;;;4.85;2.90;;;;;;;19.88;60.05;90594.59;5034691;28;20025;-86
2021/07/26 09:23:17;;;;;;;5.90;3.22;;;;;;;20.13;59.72;90590.97;5019084;28;20468;-86
2021/07/26 09:25:51;;;;;;;5.88;3.30;;;;;;;20.27;58.15;90596.09;5011887;28;20474;-86
2021/07/26 09:28:31;;;;;;;4.88;2.95;;;;;;;20.35;58.39;90592.22;4978728;28;20394;-86
2021/07/26 09:31:06;;;;;;;5.80;2.95;;;;;;;20.36;60.16;90579.75;5041421;23;21952;-87
2021/07/26 09:33:37;;;;;;;4.80;3.08;;;;;;;20.74;62.20;90588.38;4996499;28;20030;-87
2021/07/26 09:36:25;;;;;;;4.15;3.15;;;;;;;20.82;59.09;90589.81;5014180;28;20014;-87
2021/07/26 09:39:05;;;;;;;5.30;3.10;;;;;;;20.45;57.16;90583.41;5015169;28;20025;-87
2021/07/26 09:41:53;;;;;;;4.13;2.78;;;;;;;20.68;58.80;90590.72;5013166;28;20046;-88
2021/07/26 09:44:28;;;;;;;3.70;3.00;;;;;;;20.83;56.45;90590.53;5014247;28;20030;-87
2021/07/26 09:47:22;;;;;;;4.30;2.70;;;;;;;20.92;57.06;90591.56;5014151;28;20104;-87
2021/07/26 09:50:00;;;;;;;5.47;3.10;;;;;;;20.94;56.86;90586.59;5013501;28;20018;-87
2021/07/26 09:52:31;;;;;;;4.43;3.17;;;;;;;20.86;58.11;90590.50;4998395;28;20033;-89
2021/07/26 09:55:21;;;;;;;6.40;3.10;;;;;;;20.84;59.46;90584.09;5018972;28;20026;-87
2021/07/26 09:57:52;;;;;;;7.38;3.00;;;;;;;20.79;54.07;90585.31;5020363;28;20021;-87
2021/07/26 10:00:22;;;;;;;5.70;3.08;;;;;;;20.69;56.65;90580.88;5010403;28;20045;-87
2021/07/26 10:02:56;;;;;;;5.72;3.05;;;;;;;20.61;56.61;90588.19;5002691;28;20490;-88
2021/07/26 10:05:28;;;;;;;4.47;2.80;;;;;;;20.48;57.73;90590.56;4998655;28;20026;-87
2021/07/26 10:08:10;;;;;;;4.95;2.72;;;;;;;20.31;58.88;90588.88;5013331;28;20022;-87
2021/07/26 10:10:45;;;;;;;3.25;2.70;;;;;;;20.18;57.73;90591.28;4997562;28;20030;-88
2021/07/26 10:13:21;;;;;;;6.80;3.83;;;;;;;19.74;63.17;90594.72;4997481;28;20520;-87
2021/07/26 10:16:05;;;;;;;4.40;3.25;;;;;;;19.37;63.31;90592.75;5013367;28;20112;-87
2021/07/26 10:18:39;;;;;;;5.15;3.65;;;;;;;19.07;65.07;90596.72;5013435;28;20026;-86
2021/07/26 10:21:22;;;;;;;5.32;3.42;;;;;;;19.04;65.17;90592.97;5013055;28;20025;-89
2021/07/26 10:24:07;;;;;;;4.70;3.40;;;;;;;19.47;65.75;90602.47;5013330;28;20025;-87
2021/07/26 10:26:35;;;;;;;;;;;;;;;19.64;65.38;90590.28;4967051;28;20116;-86
2021/07/26 10:29:14;;;;;;;5.65;3.60;;;;;;;19.70;65.02;90596.66;4995001;28;19910;-87
2021/07/26 10:31:50;;;;;;;6.03;3.72;;;;;;;19.76;64.68;90587.91;4993193;28;20050;-88
2021/07/26 10:34:25;;;;;;;6.97;3.78;;;;;;;19.72;64.23;90599.69;4993681;28;20033;-87
2021/07/26 10:37:02;;;;;;;5.85;3.85;;;;;;;20.02;64.55;90583.88;4977467;28;20434;-86
2021/07/26 10:39:33;;;;;;;7.03;3.55;;;;;;;20.17;64.35;90586.38;4978362;28;20034;-86
2021/07/26 10:42:09;;;;;;;5.18;3.67;;;;;;;20.28;63.71;90581.72;4977388;28;20478;-87
2021/07/26 10:44:51;;;;;;;4.97;3.42;;;;;;;20.63;60.12;90572.63;4992958;28;20060;-86
2021/07/26 10:47:25;;;;;;;5.55;3.75;;;;;;;21.00;64.43;90577.06;4978449;28;20464;-89
2021/07/26 10:50:17;;;;;;;5.28;3.58;;;;;;;21.32;62.86;90569.81;4977568;28;20041;-87
2021/07/26 10:52:53;;;;;;;5.13;3.30;;;;;;;21.19;55.82;90569.59;4978550;28;20030;-87
2021/07/26 10:55:56;;;;;;;4.72;3.00;;;;;;;21.48;48.94;90578.66;4993245;28;20030;-86
2021/07/26 10:59:01;;;;;;;4.97;2.60;;;;;;;21.50;52.42;90577.50;4993257;28;20439;-87
2021/07/26 11:01:33;;;;;;;;;;;;;;;21.23;51.44;90571.03;4994521;28;20061;-86
2021/07/26 11:04:07;;;;;;;4.22;2.88;;;;;;;21.06;54.79;90585.31;4994519;28;19910;-88
2021/07/26 11:06:55;;;;;;;6.00;3.30;;;;;;;20.84;56.88;90579.53;4993390;28;20126;-87
2021/07/26 11:09:27;;;;;;;5.63;3.60;;;;;;;21.23;59.02;90575.59;4993963;28;20113;-87
2021/07/26 11:11:54;;;;;;;4.57;3.42;;;;;;;20.94;62.37;90577.91;4994065;28;20503;-87
2021/07/26 11:14:28;;;;;;;5.80;3.55;;;;;;;20.97;60.95;90580.50;4993857;28;20022;-87
2021/07/26 11:17:05;;;;;;;4.75;3.03;;;;;;;20.71;61.64;90575.97;4993948;28;20049;-86
2021/07/26 11:19:36;;;;;;;4.50;2.72;;;;;;;20.80;56.38;90570.91;4977476;28;20014;-88
2021/07/26 11:22:30;;;;;;;5.35;2.60;;;;;;;20.63;54.75;90577.19;4992586;28;20513;-86
2021/07/26 11:25:18;;;;;;;6.10;2.60;;;;;;;20.44;56.72;90571.31;4994297;28;20033;-87
2021/07/26 11:27:57;;;;;;;9.55;2.75;;;;;;;20.34;57.12;90574.09;4997484;28;20029;-86
2021/07/26 11:30:29;;;;;;;5.40;2.50;;;;;;;19.91;57.75;90572.66;4996755;28;20017;-88
2021/07/26 11:32:59;;;;;;;4.43;2.65;;;;;;;19.90;59.72;90573.81;4996779;28;20556;-86
2021/07/26 11:35:33;;;;;;;4.18;2.70;;;;;;;19.74;58.60;90573.59;4996555;28;20030;-86
2021/07/26 11:38:11;;;;;;;;;;;;;;;19.63;57.25;90563.09;5013951;28;20033;-88
2021/07/26 11:40:47;;;;;;;4.90;2.85;;;;;;;19.62;58.79;90560.84;5012262;28;19913;-86
2021/07/26 11:43:45;;;;;;;5.60;2.78;;;;;;;19.46;60.84;90567.38;5012294;28;20054;-86
2021/07/26 11:46:21;;;;;;;3.72;2.50;;;;;;;19.35;60.25;90564.06;5008952;28;20042;-86
2021/07/26 11:49:07;;;;;;;4.63;3.10;;;;;;;19.37;60.51;90567.09;5012215;28;20025;-86
2021/07/26 11:51:35;;;;;;;5.63;2.67;;;;;;;19.36;59.67;90576.13;5011874;28;20041;-86
2021/07/26 11:54:12;;;;;;;5.53;2.70;;;;;;;19.33;58.67;90566.38;4995620;28;20030;-86
2021/07/26 11:56:44;;;;;;;4.40;2.50;;;;;;;18.89;61.89;90569.69;5011734;28;20048;-90
2021/07/26 11:59:29;;;;;;;3.65;2.60;;;;;;;19.32;62.10;90570.13;5011986;28;20032;-85
2021/07/26 12:02:00;;;;;;;3.60;2.80;;;;;;;19.26;61.97;90572.47;5013211;28;20022;-86
2021/07/26 12:04:38;;;;;;;5.38;2.95;;;;;;;19.49;61.26;90577.16;4995115;28;20471;-86
2021/07/26 12:07:11;;;;;;;4.13;2.70;;;;;;;19.61;63.71;90580.47;5012517;28;20029;-86
2021/07/26 12:09:53;;;;;;;5.13;2.85;;;;;;;19.31;66.77;90579.94;5011441;28;20022;-86
2021/07/26 12:12:25;;;;;;;5.95;3.13;;;;;;;19.87;64.04;90587.81;4995420;28;20493;-86
2021/07/26 12:15:00;;;;;;;4.30;2.92;;;;;;;19.96;60.78;90595.28;4995502;28;20055;-86
2021/07/26 12:17:32;;;;;;;4.28;2.80;;;;;;;19.85;58.52;90605.22;5011433;28;20026;-87
2021/07/26 12:20:06;;;;;;;5.47;3.10;;;;;;;19.77;61.22;90601.88;4994675;28;20026;-87